sensor_id;sensor_type;location;lat;lon;timestamp;temperature;humidity
2935;DHT22;2462;51.456;7.248;2022-10-17T00:00:37;15.10;99.90
2935;DHT22;2462;51.456;7.248;2022-10-17T00:03:03;15.10;99.90
2935;DHT22;2462;51.456;7.248;2022-10-17T00:05:28;15.10;99.90
2935;DHT22;2462;51.456;7.248;2022-10-17T00:07:54;15.10;99.90
2935;DHT22;2462;51.456;7.248;2022-10-17T00:10:20;15.10;99.90
2935;DHT22;2462;51.456;7.248;2022-10-17T00:12:46;15.00;99.90
2935;DHT22;2462;51.456;7.248;2022-10-17T00:15:16;15.10;99.90
2935;DHT22;2462;51.456;7.248;2022-10-17T00:17:42;15.10;99.90
2935;DHT22;2462;51.456;7.248;2022-10-17T00:20:07;15.10;99.90
2935;DHT22;2462;51.456;7.248;2022-10-17T00:22:33;15.10;99.90
2935;DHT22;2462;51.456;7.248;2022-10-17T00:24:58;15.10;99.90
2935;DHT22;2462;51.456;7.248;2022-10-17T00:27:24;15.10;99.90
2935;DHT22;2462;51.456;7.248;2022-10-17T00:29:50;15.10;99.90
2935;DHT22;2462;51.456;7.248;2022-10-17T00:32:17;15.10;99.90
2935;DHT22;2462;51.456;7.248;2022-10-17T00:34:42;15.10;99.90
2935;DHT22;2462;51.456;7.248;2022-10-17T00:37:08;15.10;99.90
2935;DHT22;2462;51.456;7.248;2022-10-17T00:39:34;15.10;99.90
2935;DHT22;2462;51.456;7.248;2022-10-17T00:41:59;15.10;99.90
2935;DHT22;2462;51.456;7.248;2022-10-17T00:46:57;15.10;99.90
2935;DHT22;2462;51.456;7.248;2022-10-17T00:49:25;15.10;99.90
2935;DHT22;2462;51.456;7.248;2022-10-17T00:51:58;15.10;99.90
2935;DHT22;2462;51.456;7.248;2022-10-17T00:54:27;15.10;99.90
2935;DHT22;2462;51.456;7.248;2022-10-17T00:56:55;15.10;99.90
2935;DHT22;2462;51.456;7.248;2022-10-17T00:59:21;15.10;99.90
2935;DHT22;2462;51.456;7.248;2022-10-17T01:02:05;15.10;99.90
2935;DHT22;2462;51.456;7.248;2022-10-17T01:04:31;15.10;99.90
2935;DHT22;2462;51.456;7.248;2022-10-17T01:06:56;15.10;99.90
2935;DHT22;2462;51.456;7.248;2022-10-17T01:09:23;15.10;99.90
2935;DHT22;2462;51.456;7.248;2022-10-17T01:12:14;15.10;99.90
2935;DHT22;2462;51.456;7.248;2022-10-17T01:33:46;15.10;99.90
2935;DHT22;2462;51.456;7.248;2022-10-17T01:36:38;15.10;99.90
2935;DHT22;2462;51.456;7.248;2022-10-17T01:39:32;15.10;99.90
2935;DHT22;2462;51.456;7.248;2022-10-17T01:42:01;15.10;99.90
2935;DHT22;2462;51.456;7.248;2022-10-17T01:47:19;15.10;99.90
2935;DHT22;2462;51.456;7.248;2022-10-17T01:49:46;15.10;99.90
2935;DHT22;2462;51.456;7.248;2022-10-17T01:52:17;15.20;99.90
2935;DHT22;2462;51.456;7.248;2022-10-17T01:54:53;16.80;99.90
2935;DHT22;2462;51.456;7.248;2022-10-17T01:57:29;15.20;99.90
2935;DHT22;2462;51.456;7.248;2022-10-17T01:59:57;15.20;99.90
2935;DHT22;2462;51.456;7.248;2022-10-17T02:02:25;15.20;99.90
2935;DHT22;2462;51.456;7.248;2022-10-17T02:04:53;15.20;99.90
2935;DHT22;2462;51.456;7.248;2022-10-17T02:07:19;15.10;99.90
2935;DHT22;2462;51.456;7.248;2022-10-17T02:09:45;15.20;99.90
2935;DHT22;2462;51.456;7.248;2022-10-17T02:12:25;15.20;99.90
2935;DHT22;2462;51.456;7.248;2022-10-17T02:15:25;15.20;99.90
2935;DHT22;2462;51.456;7.248;2022-10-17T02:18:31;15.20;99.90
2935;DHT22;2462;51.456;7.248;2022-10-17T02:21:05;15.20;99.90
2935;DHT22;2462;51.456;7.248;2022-10-17T02:26:24;15.20;99.90
2935;DHT22;2462;51.456;7.248;2022-10-17T02:29:07;15.20;99.90
2935;DHT22;2462;51.456;7.248;2022-10-17T02:34:05;15.20;99.90
2935;DHT22;2462;51.456;7.248;2022-10-17T02:36:37;15.20;99.90
2935;DHT22;2462;51.456;7.248;2022-10-17T02:39:06;17.50;99.90
2935;DHT22;2462;51.456;7.248;2022-10-17T02:41:33;15.20;99.90
2935;DHT22;2462;51.456;7.248;2022-10-17T02:44:01;15.20;99.90
2935;DHT22;2462;51.456;7.248;2022-10-17T02:46:28;15.20;99.90
2935;DHT22;2462;51.456;7.248;2022-10-17T02:51:40;15.20;99.90
2935;DHT22;2462;51.456;7.248;2022-10-17T02:54:23;15.20;99.90
2935;DHT22;2462;51.456;7.248;2022-10-17T02:56:58;15.20;99.90
2935;DHT22;2462;51.456;7.248;2022-10-17T02:59:27;15.20;99.90
2935;DHT22;2462;51.456;7.248;2022-10-17T03:01:54;15.20;99.90
2935;DHT22;2462;51.456;7.248;2022-10-17T03:04:20;15.20;99.90
2935;DHT22;2462;51.456;7.248;2022-10-17T03:06:47;15.20;99.90
2935;DHT22;2462;51.456;7.248;2022-10-17T03:09:13;15.10;99.90
2935;DHT22;2462;51.456;7.248;2022-10-17T03:11:39;15.20;99.90
2935;DHT22;2462;51.456;7.248;2022-10-17T03:14:04;15.20;99.90
2935;DHT22;2462;51.456;7.248;2022-10-17T03:16:30;15.20;99.90
2935;DHT22;2462;51.456;7.248;2022-10-17T03:18:56;15.20;99.90
2935;DHT22;2462;51.456;7.248;2022-10-17T03:21:21;15.20;99.90
2935;DHT22;2462;51.456;7.248;2022-10-17T03:23:47;15.20;99.90
2935;DHT22;2462;51.456;7.248;2022-10-17T03:26:12;15.20;99.90
2935;DHT22;2462;51.456;7.248;2022-10-17T03:28:38;15.20;99.90
2935;DHT22;2462;51.456;7.248;2022-10-17T03:31:08;15.20;99.90
2935;DHT22;2462;51.456;7.248;2022-10-17T03:33:35;15.10;99.90
2935;DHT22;2462;51.456;7.248;2022-10-17T03:36:08;15.20;99.90
2935;DHT22;2462;51.456;7.248;2022-10-17T03:38:34;15.20;99.90
2935;DHT22;2462;51.456;7.248;2022-10-17T03:41:00;15.20;99.90
2935;DHT22;2462;51.456;7.248;2022-10-17T03:43:26;15.20;99.90
2935;DHT22;2462;51.456;7.248;2022-10-17T03:45:51;15.10;99.90
2935;DHT22;2462;51.456;7.248;2022-10-17T03:48:17;15.20;99.90
2935;DHT22;2462;51.456;7.248;2022-10-17T03:50:42;15.20;99.90
2935;DHT22;2462;51.456;7.248;2022-10-17T03:53:08;15.20;99.90
2935;DHT22;2462;51.456;7.248;2022-10-17T03:55:34;15.20;99.90
2935;DHT22;2462;51.456;7.248;2022-10-17T03:57:59;15.20;99.90
2935;DHT22;2462;51.456;7.248;2022-10-17T04:00:25;15.20;99.90
2935;DHT22;2462;51.456;7.248;2022-10-17T04:02:50;15.20;99.90
2935;DHT22;2462;51.456;7.248;2022-10-17T04:05:16;15.20;99.90
2935;DHT22;2462;51.456;7.248;2022-10-17T04:07:41;15.20;99.90
2935;DHT22;2462;51.456;7.248;2022-10-17T04:10:07;15.20;99.90
2935;DHT22;2462;51.456;7.248;2022-10-17T04:12:33;15.20;99.90
2935;DHT22;2462;51.456;7.248;2022-10-17T04:14:58;15.20;99.90
2935;DHT22;2462;51.456;7.248;2022-10-17T04:17:24;15.20;99.90
2935;DHT22;2462;51.456;7.248;2022-10-17T04:22:20;15.20;99.90
2935;DHT22;2462;51.456;7.248;2022-10-17T04:24:45;15.20;99.90
2935;DHT22;2462;51.456;7.248;2022-10-17T04:27:11;15.20;99.90
2935;DHT22;2462;51.456;7.248;2022-10-17T04:29:37;15.20;99.90
2935;DHT22;2462;51.456;7.248;2022-10-17T04:32:02;15.20;99.90
2935;DHT22;2462;51.456;7.248;2022-10-17T04:34:28;15.20;99.90
2935;DHT22;2462;51.456;7.248;2022-10-17T04:36:53;15.20;99.90
2935;DHT22;2462;51.456;7.248;2022-10-17T04:39:19;17.00;99.90
2935;DHT22;2462;51.456;7.248;2022-10-17T04:41:45;17.30;99.90
2935;DHT22;2462;51.456;7.248;2022-10-17T04:44:10;15.20;99.90
2935;DHT22;2462;51.456;7.248;2022-10-17T04:46:36;15.20;99.90
2935;DHT22;2462;51.456;7.248;2022-10-17T04:49:01;15.20;99.90
2935;DHT22;2462;51.456;7.248;2022-10-17T04:51:27;15.20;99.90
2935;DHT22;2462;51.456;7.248;2022-10-17T04:53:52;15.20;99.90
2935;DHT22;2462;51.456;7.248;2022-10-17T04:56:21;15.20;99.90
2935;DHT22;2462;51.456;7.248;2022-10-17T04:58:48;15.30;99.90
2935;DHT22;2462;51.456;7.248;2022-10-17T05:01:19;15.30;99.90
2935;DHT22;2462;51.456;7.248;2022-10-17T05:03:45;15.30;99.90
2935;DHT22;2462;51.456;7.248;2022-10-17T05:06:13;15.40;99.90
2935;DHT22;2462;51.456;7.248;2022-10-17T05:08:40;15.30;99.90
2935;DHT22;2462;51.456;7.248;2022-10-17T05:11:18;15.30;99.90
2935;DHT22;2462;51.456;7.248;2022-10-17T05:13:44;15.30;99.90
2935;DHT22;2462;51.456;7.248;2022-10-17T05:16:09;15.30;99.90
2935;DHT22;2462;51.456;7.248;2022-10-17T05:18:35;15.30;99.90
2935;DHT22;2462;51.456;7.248;2022-10-17T05:21:02;15.30;99.90
2935;DHT22;2462;51.456;7.248;2022-10-17T05:23:29;15.30;99.90
2935;DHT22;2462;51.456;7.248;2022-10-17T05:25:55;15.30;99.90
2935;DHT22;2462;51.456;7.248;2022-10-17T05:28:21;15.30;99.90
2935;DHT22;2462;51.456;7.248;2022-10-17T05:30:47;14.60;99.90
2935;DHT22;2462;51.456;7.248;2022-10-17T05:33:12;15.30;99.90
2935;DHT22;2462;51.456;7.248;2022-10-17T05:35:38;16.40;99.90
2935;DHT22;2462;51.456;7.248;2022-10-17T05:38:03;15.30;99.90
2935;DHT22;2462;51.456;7.248;2022-10-17T05:40:29;15.40;99.90
2935;DHT22;2462;51.456;7.248;2022-10-17T05:42:54;15.40;99.90
2935;DHT22;2462;51.456;7.248;2022-10-17T05:45:20;15.40;99.90
2935;DHT22;2462;51.456;7.248;2022-10-17T05:47:45;15.40;99.90
2935;DHT22;2462;51.456;7.248;2022-10-17T05:50:11;15.40;99.90
2935;DHT22;2462;51.456;7.248;2022-10-17T05:52:36;15.40;99.90
2935;DHT22;2462;51.456;7.248;2022-10-17T05:55:03;15.40;99.90
2935;DHT22;2462;51.456;7.248;2022-10-17T05:57:29;15.40;99.90
2935;DHT22;2462;51.456;7.248;2022-10-17T05:59:55;15.40;99.90
2935;DHT22;2462;51.456;7.248;2022-10-17T06:02:20;17.20;99.90
2935;DHT22;2462;51.456;7.248;2022-10-17T06:04:46;15.40;99.90
2935;DHT22;2462;51.456;7.248;2022-10-17T06:07:13;15.40;99.90
2935;DHT22;2462;51.456;7.248;2022-10-17T06:09:39;15.40;99.90
2935;DHT22;2462;51.456;7.248;2022-10-17T06:12:05;15.40;99.90
2935;DHT22;2462;51.456;7.248;2022-10-17T06:14:31;15.40;99.90
2935;DHT22;2462;51.456;7.248;2022-10-17T06:16:56;15.40;99.90
2935;DHT22;2462;51.456;7.248;2022-10-17T06:19:23;16.90;99.90
2935;DHT22;2462;51.456;7.248;2022-10-17T06:21:49;15.40;99.90
2935;DHT22;2462;51.456;7.248;2022-10-17T06:24:14;15.40;99.90
2935;DHT22;2462;51.456;7.248;2022-10-17T06:26:40;15.40;99.90
2935;DHT22;2462;51.456;7.248;2022-10-17T06:29:05;15.40;99.90
2935;DHT22;2462;51.456;7.248;2022-10-17T06:31:31;15.40;99.90
2935;DHT22;2462;51.456;7.248;2022-10-17T06:33:56;15.40;99.90
2935;DHT22;2462;51.456;7.248;2022-10-17T06:36:22;15.00;99.90
2935;DHT22;2462;51.456;7.248;2022-10-17T06:38:47;15.40;99.90
2935;DHT22;2462;51.456;7.248;2022-10-17T06:41:15;15.50;99.90
2935;DHT22;2462;51.456;7.248;2022-10-17T06:43:42;15.50;99.90
2935;DHT22;2462;51.456;7.248;2022-10-17T06:46:10;15.30;99.90
2935;DHT22;2462;51.456;7.248;2022-10-17T06:48:36;15.50;99.90
2935;DHT22;2462;51.456;7.248;2022-10-17T06:51:03;15.50;99.90
2935;DHT22;2462;51.456;7.248;2022-10-17T06:53:30;15.50;99.90
2935;DHT22;2462;51.456;7.248;2022-10-17T06:55:56;15.60;99.90
2935;DHT22;2462;51.456;7.248;2022-10-17T06:58:34;15.60;99.90
2935;DHT22;2462;51.456;7.248;2022-10-17T07:01:01;15.60;99.90
2935;DHT22;2462;51.456;7.248;2022-10-17T07:03:28;15.60;99.90
2935;DHT22;2462;51.456;7.248;2022-10-17T07:05:54;15.60;99.90
2935;DHT22;2462;51.456;7.248;2022-10-17T07:08:20;15.60;99.90
2935;DHT22;2462;51.456;7.248;2022-10-17T07:10:46;15.70;99.90
2935;DHT22;2462;51.456;7.248;2022-10-17T07:13:12;15.70;99.90
2935;DHT22;2462;51.456;7.248;2022-10-17T07:15:38;15.40;99.90
2935;DHT22;2462;51.456;7.248;2022-10-17T07:18:04;15.70;99.90
2935;DHT22;2462;51.456;7.248;2022-10-17T07:20:29;15.70;99.90
2935;DHT22;2462;51.456;7.248;2022-10-17T07:22:55;15.70;99.90
2935;DHT22;2462;51.456;7.248;2022-10-17T07:25:21;15.70;99.90
2935;DHT22;2462;51.456;7.248;2022-10-17T07:27:48;15.70;99.90
2935;DHT22;2462;51.456;7.248;2022-10-17T07:30:14;15.70;99.90
2935;DHT22;2462;51.456;7.248;2022-10-17T07:32:41;15.70;99.90
2935;DHT22;2462;51.456;7.248;2022-10-17T07:35:07;15.70;99.90
2935;DHT22;2462;51.456;7.248;2022-10-17T07:37:32;15.80;99.90
2935;DHT22;2462;51.456;7.248;2022-10-17T07:39:58;15.80;99.90
2935;DHT22;2462;51.456;7.248;2022-10-17T07:42:23;15.80;99.90
2935;DHT22;2462;51.456;7.248;2022-10-17T07:44:49;16.20;99.90
2935;DHT22;2462;51.456;7.248;2022-10-17T07:47:15;15.80;99.90
2935;DHT22;2462;51.456;7.248;2022-10-17T07:49:41;15.80;99.90
2935;DHT22;2462;51.456;7.248;2022-10-17T07:52:12;15.90;99.90
2935;DHT22;2462;51.456;7.248;2022-10-17T07:54:38;15.90;99.90
2935;DHT22;2462;51.456;7.248;2022-10-17T07:57:05;15.90;99.90
2935;DHT22;2462;51.456;7.248;2022-10-17T07:59:32;15.90;99.90
2935;DHT22;2462;51.456;7.248;2022-10-17T08:01:58;15.90;99.90
2935;DHT22;2462;51.456;7.248;2022-10-17T08:04:24;15.90;99.90
2935;DHT22;2462;51.456;7.248;2022-10-17T08:06:50;15.90;99.90
2935;DHT22;2462;51.456;7.248;2022-10-17T08:09:16;16.00;99.90
2935;DHT22;2462;51.456;7.248;2022-10-17T08:11:41;16.00;99.90
2935;DHT22;2462;51.456;7.248;2022-10-17T08:14:11;16.00;99.90
2935;DHT22;2462;51.456;7.248;2022-10-17T08:16:36;16.00;99.90
2935;DHT22;2462;51.456;7.248;2022-10-17T08:19:02;16.00;99.90
2935;DHT22;2462;51.456;7.248;2022-10-17T08:21:28;16.10;99.90
2935;DHT22;2462;51.456;7.248;2022-10-17T08:23:53;16.10;99.90
2935;DHT22;2462;51.456;7.248;2022-10-17T08:26:19;16.10;99.90
2935;DHT22;2462;51.456;7.248;2022-10-17T08:28:46;16.10;99.90
2935;DHT22;2462;51.456;7.248;2022-10-17T08:31:15;16.10;99.90
2935;DHT22;2462;51.456;7.248;2022-10-17T08:33:43;16.10;99.90
2935;DHT22;2462;51.456;7.248;2022-10-17T08:36:09;16.10;99.90
2935;DHT22;2462;51.456;7.248;2022-10-17T08:38:36;16.20;99.90
2935;DHT22;2462;51.456;7.248;2022-10-17T08:41:12;16.20;99.90
2935;DHT22;2462;51.456;7.248;2022-10-17T08:43:54;16.30;99.90
2935;DHT22;2462;51.456;7.248;2022-10-17T08:46:21;16.30;99.90
2935;DHT22;2462;51.456;7.248;2022-10-17T08:48:48;16.30;99.90
2935;DHT22;2462;51.456;7.248;2022-10-17T08:51:19;16.30;99.90
2935;DHT22;2462;51.456;7.248;2022-10-17T08:56:22;16.40;99.90
2935;DHT22;2462;51.456;7.248;2022-10-17T08:58:48;16.40;99.90
2935;DHT22;2462;51.456;7.248;2022-10-17T09:04:20;16.50;99.90
2935;DHT22;2462;51.456;7.248;2022-10-17T09:06:56;16.50;99.90
2935;DHT22;2462;51.456;7.248;2022-10-17T09:09:41;16.50;99.90
2935;DHT22;2462;51.456;7.248;2022-10-17T09:12:24;16.60;99.90
2935;DHT22;2462;51.456;7.248;2022-10-17T09:15:26;16.60;99.90
2935;DHT22;2462;51.456;7.248;2022-10-17T09:17:59;16.60;99.90
2935;DHT22;2462;51.456;7.248;2022-10-17T09:20:32;17.60;99.90
2935;DHT22;2462;51.456;7.248;2022-10-17T09:23:23;16.70;99.90
2935;DHT22;2462;51.456;7.248;2022-10-17T09:25:54;16.70;99.90
2935;DHT22;2462;51.456;7.248;2022-10-17T09:31:04;16.80;99.90
2935;DHT22;2462;51.456;7.248;2022-10-17T09:33:41;16.80;99.90
2935;DHT22;2462;51.456;7.248;2022-10-17T09:36:12;16.70;99.90
2935;DHT22;2462;51.456;7.248;2022-10-17T09:38:41;16.90;99.90
2935;DHT22;2462;51.456;7.248;2022-10-17T09:41:17;16.80;99.90
2935;DHT22;2462;51.456;7.248;2022-10-17T09:43:44;16.90;99.90
2935;DHT22;2462;51.456;7.248;2022-10-17T09:46:36;16.90;99.90
2935;DHT22;2462;51.456;7.248;2022-10-17T09:49:08;17.00;99.90
2935;DHT22;2462;51.456;7.248;2022-10-17T09:51:36;17.10;99.90
2935;DHT22;2462;51.456;7.248;2022-10-17T09:54:10;17.00;99.90
2935;DHT22;2462;51.456;7.248;2022-10-17T09:57:15;17.00;99.90
2935;DHT22;2462;51.456;7.248;2022-10-17T09:59:44;17.10;99.90
2935;DHT22;2462;51.456;7.248;2022-10-17T10:02:15;17.40;99.90
2935;DHT22;2462;51.456;7.248;2022-10-17T10:04:57;18.60;99.90
2935;DHT22;2462;51.456;7.248;2022-10-17T10:07:26;17.20;99.90
2935;DHT22;2462;51.456;7.248;2022-10-17T10:09:52;17.20;99.90
2935;DHT22;2462;51.456;7.248;2022-10-17T10:12:20;17.60;99.90
2935;DHT22;2462;51.456;7.248;2022-10-17T10:14:46;17.20;99.90
2935;DHT22;2462;51.456;7.248;2022-10-17T10:17:26;17.30;99.90
2935;DHT22;2462;51.456;7.248;2022-10-17T10:19:52;17.50;99.90
2935;DHT22;2462;51.456;7.248;2022-10-17T10:22:20;17.30;99.90
2935;DHT22;2462;51.456;7.248;2022-10-17T10:25:16;17.30;99.90
2935;DHT22;2462;51.456;7.248;2022-10-17T10:27:43;17.30;99.90
2935;DHT22;2462;51.456;7.248;2022-10-17T10:30:19;17.30;99.90
2935;DHT22;2462;51.456;7.248;2022-10-17T10:32:47;17.40;99.90
2935;DHT22;2462;51.456;7.248;2022-10-17T10:35:27;17.40;99.90
2935;DHT22;2462;51.456;7.248;2022-10-17T10:37:56;17.40;99.90
2935;DHT22;2462;51.456;7.248;2022-10-17T10:40:26;17.40;99.90
2935;DHT22;2462;51.456;7.248;2022-10-17T10:42:56;17.40;99.90
2935;DHT22;2462;51.456;7.248;2022-10-17T10:45:39;17.40;99.90
2935;DHT22;2462;51.456;7.248;2022-10-17T10:48:35;17.40;99.90
2935;DHT22;2462;51.456;7.248;2022-10-17T10:51:15;17.50;99.90
2935;DHT22;2462;51.456;7.248;2022-10-17T10:53:49;17.50;99.90
2935;DHT22;2462;51.456;7.248;2022-10-17T10:56:20;17.50;99.90
2935;DHT22;2462;51.456;7.248;2022-10-17T10:59:05;17.50;99.90
2935;DHT22;2462;51.456;7.248;2022-10-17T11:04:43;17.60;99.90
2935;DHT22;2462;51.456;7.248;2022-10-17T11:07:15;17.60;99.90
2935;DHT22;2462;51.456;7.248;2022-10-17T11:09:59;17.60;99.90
2935;DHT22;2462;51.456;7.248;2022-10-17T11:12:41;17.60;99.90
2935;DHT22;2462;51.456;7.248;2022-10-17T11:15:15;17.60;99.90
2935;DHT22;2462;51.456;7.248;2022-10-17T11:18:04;17.60;99.90
2935;DHT22;2462;51.456;7.248;2022-10-17T11:20:52;17.70;99.90
2935;DHT22;2462;51.456;7.248;2022-10-17T11:25:58;17.50;99.90
2935;DHT22;2462;51.456;7.248;2022-10-17T11:28:25;17.60;99.90
2935;DHT22;2462;51.456;7.248;2022-10-17T11:30:54;17.60;99.90
2935;DHT22;2462;51.456;7.248;2022-10-17T11:33:33;18.00;99.90
2935;DHT22;2462;51.456;7.248;2022-10-17T11:36:04;17.70;99.90
2935;DHT22;2462;51.456;7.248;2022-10-17T11:38:48;17.70;99.90
2935;DHT22;2462;51.456;7.248;2022-10-17T11:42:06;17.70;99.90
2935;DHT22;2462;51.456;7.248;2022-10-17T11:44:19;17.70;99.90
2935;DHT22;2462;51.456;7.248;2022-10-17T11:46:51;17.70;99.90
2935;DHT22;2462;51.456;7.248;2022-10-17T11:49:22;17.80;99.90
2935;DHT22;2462;51.456;7.248;2022-10-17T11:54:58;17.80;99.90
2935;DHT22;2462;51.456;7.248;2022-10-17T12:00:34;17.90;99.90
2935;DHT22;2462;51.456;7.248;2022-10-17T12:08:32;17.90;99.90
2935;DHT22;2462;51.456;7.248;2022-10-17T12:11:04;18.00;99.90
2935;DHT22;2462;51.456;7.248;2022-10-17T12:18:41;18.00;99.90
2935;DHT22;2462;51.456;7.248;2022-10-17T12:21:07;18.00;99.90
2935;DHT22;2462;51.456;7.248;2022-10-17T12:23:32;18.00;99.90
2935;DHT22;2462;51.456;7.248;2022-10-17T12:26:02;18.00;99.90
2935;DHT22;2462;51.456;7.248;2022-10-17T12:28:45;18.00;99.90
2935;DHT22;2462;51.456;7.248;2022-10-17T12:33:54;18.00;99.90
2935;DHT22;2462;51.456;7.248;2022-10-17T12:38:51;18.00;99.90
2935;DHT22;2462;51.456;7.248;2022-10-17T12:46:51;18.10;99.90
2935;DHT22;2462;51.456;7.248;2022-10-17T12:57:26;18.10;99.90
2935;DHT22;2462;51.456;7.248;2022-10-17T12:59:54;18.10;99.90
2935;DHT22;2462;51.456;7.248;2022-10-17T13:02:23;18.10;99.90
2935;DHT22;2462;51.456;7.248;2022-10-17T13:04:54;18.10;99.90
2935;DHT22;2462;51.456;7.248;2022-10-17T13:07:22;18.10;99.90
2935;DHT22;2462;51.456;7.248;2022-10-17T13:09:49;18.10;99.90
2935;DHT22;2462;51.456;7.248;2022-10-17T13:12:22;18.00;99.90
2935;DHT22;2462;51.456;7.248;2022-10-17T13:14:50;18.10;99.90
2935;DHT22;2462;51.456;7.248;2022-10-17T13:17:35;18.10;99.90
2935;DHT22;2462;51.456;7.248;2022-10-17T13:20:31;18.10;99.90
2935;DHT22;2462;51.456;7.248;2022-10-17T13:23:19;17.90;99.90
2935;DHT22;2462;51.456;7.248;2022-10-17T13:28:42;18.10;99.90
2935;DHT22;2462;51.456;7.248;2022-10-17T13:31:32;19.30;99.90
2935;DHT22;2462;51.456;7.248;2022-10-17T13:34:00;18.10;99.90
2935;DHT22;2462;51.456;7.248;2022-10-17T13:36:26;20.00;99.90
2935;DHT22;2462;51.456;7.248;2022-10-17T13:38:53;18.10;99.90
2935;DHT22;2462;51.456;7.248;2022-10-17T13:41:24;18.10;99.90
2935;DHT22;2462;51.456;7.248;2022-10-17T13:43:52;18.10;99.90
2935;DHT22;2462;51.456;7.248;2022-10-17T13:46:27;18.10;99.90
2935;DHT22;2462;51.456;7.248;2022-10-17T13:48:53;18.10;99.90
2935;DHT22;2462;51.456;7.248;2022-10-17T13:51:20;18.10;99.90
2935;DHT22;2462;51.456;7.248;2022-10-17T13:53:59;18.10;99.90
2935;DHT22;2462;51.456;7.248;2022-10-17T13:56:38;18.10;99.90
2935;DHT22;2462;51.456;7.248;2022-10-17T13:59:21;18.10;99.90
2935;DHT22;2462;51.456;7.248;2022-10-17T14:01:48;18.10;99.90
2935;DHT22;2462;51.456;7.248;2022-10-17T14:04:14;18.10;99.90
2935;DHT22;2462;51.456;7.248;2022-10-17T14:06:43;18.10;99.90
2935;DHT22;2462;51.456;7.248;2022-10-17T14:09:27;18.10;99.90
2935;DHT22;2462;51.456;7.248;2022-10-17T14:12:09;18.10;99.90
2935;DHT22;2462;51.456;7.248;2022-10-17T14:14:37;18.10;99.90
2935;DHT22;2462;51.456;7.248;2022-10-17T14:17:33;18.10;99.90
2935;DHT22;2462;51.456;7.248;2022-10-17T14:20:00;18.10;99.90
2935;DHT22;2462;51.456;7.248;2022-10-17T14:22:29;18.10;99.90
2935;DHT22;2462;51.456;7.248;2022-10-17T14:24:57;18.10;99.90
2935;DHT22;2462;51.456;7.248;2022-10-17T14:27:34;18.10;99.90
2935;DHT22;2462;51.456;7.248;2022-10-17T14:30:03;18.10;99.90
2935;DHT22;2462;51.456;7.248;2022-10-17T14:32:32;18.10;99.90
2935;DHT22;2462;51.456;7.248;2022-10-17T14:35:00;18.00;99.90
2935;DHT22;2462;51.456;7.248;2022-10-17T14:37:40;17.70;99.90
2935;DHT22;2462;51.456;7.248;2022-10-17T14:40:15;18.10;99.90
2935;DHT22;2462;51.456;7.248;2022-10-17T14:42:41;18.10;99.90
2935;DHT22;2462;51.456;7.248;2022-10-17T14:45:11;18.10;99.90
2935;DHT22;2462;51.456;7.248;2022-10-17T14:47:39;18.10;99.90
2935;DHT22;2462;51.456;7.248;2022-10-17T14:50:29;18.10;99.90
2935;DHT22;2462;51.456;7.248;2022-10-17T14:55:36;18.10;99.90
2935;DHT22;2462;51.456;7.248;2022-10-17T14:58:23;18.10;99.90
2935;DHT22;2462;51.456;7.248;2022-10-17T15:00:49;18.10;99.90
2935;DHT22;2462;51.456;7.248;2022-10-17T15:03:14;18.00;99.90
2935;DHT22;2462;51.456;7.248;2022-10-17T15:05:44;18.10;99.90
2935;DHT22;2462;51.456;7.248;2022-10-17T15:08:13;18.00;99.90
2935;DHT22;2462;51.456;7.248;2022-10-17T15:10:38;18.00;99.90
2935;DHT22;2462;51.456;7.248;2022-10-17T15:13:08;18.00;99.90
2935;DHT22;2462;51.456;7.248;2022-10-17T15:15:35;18.00;99.90
2935;DHT22;2462;51.456;7.248;2022-10-17T15:18:01;18.00;99.90
2935;DHT22;2462;51.456;7.248;2022-10-17T15:20:27;18.00;99.90
2935;DHT22;2462;51.456;7.248;2022-10-17T15:22:55;18.00;99.90
2935;DHT22;2462;51.456;7.248;2022-10-17T15:25:22;17.90;99.90
2935;DHT22;2462;51.456;7.248;2022-10-17T15:27:47;17.90;99.90
2935;DHT22;2462;51.456;7.248;2022-10-17T15:30:20;17.90;99.90
2935;DHT22;2462;51.456;7.248;2022-10-17T15:32:46;17.90;99.90
2935;DHT22;2462;51.456;7.248;2022-10-17T15:35:12;17.90;99.90
2935;DHT22;2462;51.456;7.248;2022-10-17T15:37:38;17.90;99.90
2935;DHT22;2462;51.456;7.248;2022-10-17T15:40:04;17.90;99.90
2935;DHT22;2462;51.456;7.248;2022-10-17T15:42:31;17.90;99.90
2935;DHT22;2462;51.456;7.248;2022-10-17T15:44:57;17.90;99.90
2935;DHT22;2462;51.456;7.248;2022-10-17T15:47:30;17.90;99.90
2935;DHT22;2462;51.456;7.248;2022-10-17T15:49:58;17.90;99.90
2935;DHT22;2462;51.456;7.248;2022-10-17T15:52:23;17.80;99.90
2935;DHT22;2462;51.456;7.248;2022-10-17T15:54:49;17.80;99.90
2935;DHT22;2462;51.456;7.248;2022-10-17T15:57:19;17.90;99.90
2935;DHT22;2462;51.456;7.248;2022-10-17T15:59:45;17.80;99.90
2935;DHT22;2462;51.456;7.248;2022-10-17T16:02:13;17.80;99.90
2935;DHT22;2462;51.456;7.248;2022-10-17T16:04:38;18.00;99.90
2935;DHT22;2462;51.456;7.248;2022-10-17T16:07:04;17.80;99.90
2935;DHT22;2462;51.456;7.248;2022-10-17T16:09:30;17.80;99.90
2935;DHT22;2462;51.456;7.248;2022-10-17T16:11:55;17.80;99.90
2935;DHT22;2462;51.456;7.248;2022-10-17T16:14:21;17.80;99.90
2935;DHT22;2462;51.456;7.248;2022-10-17T16:16:46;17.80;99.90
2935;DHT22;2462;51.456;7.248;2022-10-17T16:19:12;17.80;99.90
2935;DHT22;2462;51.456;7.248;2022-10-17T16:24:09;17.80;99.90
2935;DHT22;2462;51.456;7.248;2022-10-17T16:26:35;17.80;99.90
2935;DHT22;2462;51.456;7.248;2022-10-17T16:29:00;17.80;99.90
2935;DHT22;2462;51.456;7.248;2022-10-17T16:31:31;18.00;99.90
2935;DHT22;2462;51.456;7.248;2022-10-17T16:33:58;18.30;99.90
2935;DHT22;2462;51.456;7.248;2022-10-17T16:36:24;17.80;99.90
2935;DHT22;2462;51.456;7.248;2022-10-17T16:38:50;17.80;99.90
2935;DHT22;2462;51.456;7.248;2022-10-17T16:41:37;17.70;99.90
2935;DHT22;2462;51.456;7.248;2022-10-17T16:44:06;17.70;99.90
2935;DHT22;2462;51.456;7.248;2022-10-17T16:46:32;17.70;99.90
2935;DHT22;2462;51.456;7.248;2022-10-17T16:48:58;19.10;99.90
2935;DHT22;2462;51.456;7.248;2022-10-17T16:51:24;17.70;99.90
2935;DHT22;2462;51.456;7.248;2022-10-17T16:53:54;17.60;99.90
2935;DHT22;2462;51.456;7.248;2022-10-17T16:56:22;17.70;99.90
2935;DHT22;2462;51.456;7.248;2022-10-17T16:58:48;17.80;99.90
2935;DHT22;2462;51.456;7.248;2022-10-17T17:01:19;17.70;99.90
2935;DHT22;2462;51.456;7.248;2022-10-17T17:03:46;17.70;99.90
2935;DHT22;2462;51.456;7.248;2022-10-17T17:06:14;17.70;99.90
2935;DHT22;2462;51.456;7.248;2022-10-17T17:08:41;17.70;99.90
2935;DHT22;2462;51.456;7.248;2022-10-17T17:11:08;17.70;99.90
2935;DHT22;2462;51.456;7.248;2022-10-17T17:13:33;17.70;99.90
2935;DHT22;2462;51.456;7.248;2022-10-17T17:18:33;17.70;99.90
2935;DHT22;2462;51.456;7.248;2022-10-17T17:21:03;17.70;99.90
2935;DHT22;2462;51.456;7.248;2022-10-17T17:23:31;17.70;99.90
2935;DHT22;2462;51.456;7.248;2022-10-17T17:26:07;17.70;99.90
2935;DHT22;2462;51.456;7.248;2022-10-17T17:28:34;17.70;99.90
2935;DHT22;2462;51.456;7.248;2022-10-17T17:30:59;17.80;99.90
2935;DHT22;2462;51.456;7.248;2022-10-17T17:33:25;17.60;99.90
2935;DHT22;2462;51.456;7.248;2022-10-17T17:35:58;17.60;99.90
2935;DHT22;2462;51.456;7.248;2022-10-17T17:38:26;17.60;99.90
2935;DHT22;2462;51.456;7.248;2022-10-17T17:40:52;17.60;99.90
2935;DHT22;2462;51.456;7.248;2022-10-17T17:43:18;17.60;99.90
2935;DHT22;2462;51.456;7.248;2022-10-17T17:45:44;17.60;99.90
2935;DHT22;2462;51.456;7.248;2022-10-17T17:48:10;17.60;99.90
2935;DHT22;2462;51.456;7.248;2022-10-17T17:50:37;17.60;99.90
2935;DHT22;2462;51.456;7.248;2022-10-17T17:53:03;17.60;99.90